createdAt,value
2024-05-09T00:00:39.485Z,13.60
2024-05-09T00:03:09.251Z,13.57
2024-05-09T00:05:37.796Z,13.50
2024-05-09T00:08:06.629Z,13.43
2024-05-09T00:10:37.430Z,13.43
2024-05-09T00:13:10.344Z,13.42
2024-05-09T00:15:38.287Z,13.44
2024-05-09T00:18:06.608Z,13.45
2024-05-09T00:20:38.941Z,13.45
2024-05-09T00:23:08.451Z,13.42
2024-05-09T00:25:35.992Z,13.21
2024-05-09T00:28:03.370Z,13.06
2024-05-09T00:30:35.983Z,12.98
2024-05-09T00:33:06.791Z,12.83
2024-05-09T00:35:35.610Z,12.64
2024-05-09T00:38:03.039Z,12.47
2024-05-09T00:40:39.108Z,12.43
2024-05-09T00:43:08.902Z,12.47
2024-05-09T00:45:38.637Z,12.57
2024-05-09T00:48:09.020Z,12.64
2024-05-09T00:50:41.804Z,12.70
2024-05-09T00:53:11.702Z,12.76
2024-05-09T00:55:40.562Z,12.76
2024-05-09T00:58:11.854Z,12.79
2024-05-09T01:00:42.209Z,12.78
2024-05-09T01:03:12.153Z,12.79
2024-05-09T01:05:41.423Z,12.76
2024-05-09T01:08:10.742Z,12.79
2024-05-09T01:10:38.611Z,12.78
2024-05-09T01:13:06.834Z,12.76
2024-05-09T01:15:35.762Z,12.76
2024-05-09T01:18:10.711Z,12.60
2024-05-09T01:20:42.482Z,12.38
2024-05-09T01:23:16.073Z,12.40
2024-05-09T01:25:44.420Z,12.42
2024-05-09T01:28:12.007Z,12.44
2024-05-09T01:30:39.149Z,12.44
2024-05-09T01:33:09.291Z,12.47
2024-05-09T01:35:39.045Z,12.51
2024-05-09T01:38:06.727Z,12.54
2024-05-09T01:40:49.763Z,12.84
2024-05-09T01:43:20.406Z,12.95
2024-05-09T01:45:47.444Z,12.90
2024-05-09T01:48:14.717Z,12.75
2024-05-09T01:50:43.253Z,12.61
2024-05-09T01:53:14.850Z,12.49
2024-05-09T01:55:45.155Z,12.40
2024-05-09T01:58:12.807Z,12.34
2024-05-09T02:00:43.551Z,12.29
2024-05-09T02:03:16.306Z,12.24
2024-05-09T02:05:46.565Z,12.21
2024-05-09T02:08:17.630Z,12.19
2024-05-09T02:10:49.499Z,12.14
2024-05-09T02:13:17.361Z,12.10
2024-05-09T02:15:47.298Z,12.06
2024-05-09T02:18:14.714Z,12.06
2024-05-09T02:20:43.000Z,12.01
2024-05-09T02:23:10.979Z,11.99
2024-05-09T02:25:38.104Z,11.98
2024-05-09T02:28:08.054Z,11.97
2024-05-09T02:30:39.767Z,11.96
2024-05-09T02:33:11.303Z,11.94
2024-05-09T02:35:40.621Z,11.95
2024-05-09T02:38:09.526Z,11.94
2024-05-09T02:40:38.928Z,11.87
2024-05-09T02:43:12.902Z,11.84
2024-05-09T02:45:40.719Z,11.83
2024-05-09T02:48:11.531Z,11.77
2024-05-09T02:50:40.172Z,11.75
2024-05-09T02:53:08.788Z,11.73
2024-05-09T02:55:37.084Z,11.70
2024-05-09T02:58:04.691Z,11.68
2024-05-09T03:00:39.246Z,11.68
2024-05-09T03:03:10.961Z,11.65
2024-05-09T03:05:40.862Z,11.63
2024-05-09T03:08:08.306Z,11.58
2024-05-09T03:10:38.218Z,11.55
2024-05-09T03:13:07.434Z,11.51
2024-05-09T03:15:37.293Z,11.40
2024-05-09T03:18:06.322Z,11.29
2024-05-09T03:20:35.727Z,10.99
2024-05-09T03:23:04.410Z,10.87
2024-05-09T03:25:31.748Z,10.90
2024-05-09T03:27:58.792Z,10.80
2024-05-09T03:30:35.607Z,10.84
2024-05-09T03:33:14.164Z,10.85
2024-05-09T03:35:43.098Z,10.89
2024-05-09T03:38:10.324Z,10.89
2024-05-09T03:40:44.793Z,10.87
2024-05-09T03:43:12.849Z,10.88
2024-05-09T03:45:40.101Z,10.90
2024-05-09T03:48:08.479Z,10.89
2024-05-09T03:50:38.584Z,10.93
2024-05-09T03:53:10.364Z,10.95
2024-05-09T03:55:37.719Z,10.92
2024-05-09T03:58:05.518Z,10.77
2024-05-09T04:00:38.045Z,10.69
2024-05-09T04:03:10.165Z,10.61
2024-05-09T04:05:43.226Z,10.62
2024-05-09T04:08:13.802Z,10.64
2024-05-09T04:10:41.356Z,10.68
2024-05-09T04:13:09.987Z,10.76
2024-05-09T04:15:37.040Z,10.89
2024-05-09T04:18:04.365Z,11.08
2024-05-09T04:20:38.187Z,11.30
2024-05-09T04:23:14.431Z,11.57
2024-05-09T04:25:44.226Z,11.85
2024-05-09T04:28:11.917Z,12.17
2024-05-09T04:30:41.167Z,12.40
2024-05-09T04:33:11.810Z,12.67
2024-05-09T04:35:40.960Z,12.97
2024-05-09T04:38:11.236Z,13.27
2024-05-09T04:40:38.652Z,13.53
2024-05-09T04:43:07.496Z,13.80
2024-05-09T04:45:35.628Z,14.11
2024-05-09T04:48:03.365Z,14.41
2024-05-09T04:50:36.806Z,14.81
2024-05-09T04:53:08.246Z,15.08
2024-05-09T04:55:40.435Z,15.28
2024-05-09T04:58:08.606Z,15.81
2024-05-09T05:00:38.083Z,16.12
2024-05-09T05:03:08.750Z,16.52
2024-05-09T05:05:38.274Z,16.75
2024-05-09T05:08:06.472Z,17.05
2024-05-09T05:10:36.436Z,17.31
2024-05-09T05:13:07.121Z,17.18
2024-05-09T05:15:34.276Z,17.20
2024-05-09T05:18:01.771Z,17.65
2024-05-09T05:20:33.569Z,17.39
2024-05-09T05:23:02.309Z,17.92
2024-05-09T05:25:29.687Z,18.59
2024-05-09T05:27:56.994Z,18.61
2024-05-09T05:30:29.377Z,18.84
2024-05-09T05:33:02.562Z,19.40
2024-05-09T05:35:30.063Z,19.59
2024-05-09T05:37:58.445Z,19.51
2024-05-09T05:40:33.210Z,20.12
2024-05-09T05:43:04.333Z,20.14
2024-05-09T05:45:33.994Z,20.18
2024-05-09T05:48:05.509Z,20.43
2024-05-09T05:50:36.717Z,20.89
2024-05-09T05:53:07.538Z,21.14
2024-05-09T05:55:35.585Z,21.67
2024-05-09T05:58:02.768Z,21.48
2024-05-09T06:00:37.509Z,21.61
2024-05-09T06:03:11.448Z,22.25
2024-05-09T06:05:39.046Z,22.57
2024-05-09T06:08:07.250Z,22.32
2024-05-09T06:10:38.524Z,21.61
2024-05-09T06:13:08.372Z,22.37
2024-05-09T06:15:35.384Z,21.77
2024-05-09T06:18:05.897Z,22.40
2024-05-09T06:20:37.950Z,22.97
2024-05-09T06:23:06.774Z,22.95
2024-05-09T06:25:34.344Z,22.80
2024-05-09T06:28:02.314Z,23.18
2024-05-09T06:30:37.161Z,23.00
2024-05-09T06:33:09.756Z,23.96
2024-05-09T06:35:41.066Z,23.69
2024-05-09T06:38:08.363Z,23.42
2024-05-09T06:40:38.546Z,23.77
2024-05-09T06:43:11.226Z,24.04
2024-05-09T06:45:38.449Z,23.40
2024-05-09T06:48:07.447Z,24.27
2024-05-09T06:50:37.976Z,25.05
2024-05-09T06:53:09.748Z,25.27
2024-05-09T06:55:37.828Z,25.61
2024-05-09T06:58:07.063Z,26.35
2024-05-09T07:00:39.328Z,27.03
2024-05-09T07:03:08.772Z,26.25
2024-05-09T07:05:36.943Z,26.18
2024-05-09T07:08:05.883Z,25.88
2024-05-09T07:10:37.000Z,25.70
2024-05-09T07:13:09.928Z,26.28
2024-05-09T07:15:37.211Z,26.32
2024-05-09T07:18:10.768Z,27.16
2024-05-09T07:20:38.777Z,26.94
2024-05-09T07:23:08.823Z,25.84
2024-05-09T07:25:40.677Z,26.49
2024-05-09T07:28:12.139Z,26.83
2024-05-09T07:30:39.260Z,25.89
2024-05-09T07:33:06.855Z,26.75
2024-05-09T07:35:34.252Z,27.19
2024-05-09T07:38:01.596Z,27.85
2024-05-09T07:40:35.163Z,28.15
2024-05-09T07:43:08.393Z,27.90
2024-05-09T07:52:32.686Z,28.26
2024-05-09T07:55:54.484Z,26.99
2024-05-09T07:58:24.253Z,26.47
2024-05-09T08:00:51.429Z,26.03
2024-05-09T08:03:18.658Z,26.17
2024-05-09T08:05:45.837Z,25.70
2024-05-09T08:08:12.866Z,25.74
2024-05-09T08:10:40.109Z,26.08
2024-05-09T08:13:07.315Z,26.27
2024-05-09T08:15:37.160Z,26.35
2024-05-09T08:18:07.981Z,26.17
2024-05-09T08:20:37.932Z,25.51
2024-05-09T08:23:05.382Z,26.05
2024-05-09T08:25:32.482Z,25.86
2024-05-09T08:27:59.703Z,25.91
2024-05-09T08:30:33.418Z,26.07
2024-05-09T08:33:07.765Z,25.72
2024-05-09T08:35:35.293Z,25.35
2024-05-09T08:38:03.390Z,25.28
2024-05-09T08:40:35.116Z,24.17
2024-05-09T08:43:08.008Z,24.59
2024-05-09T08:45:36.084Z,25.06
2024-05-09T08:48:08.921Z,25.40
2024-05-09T08:50:40.575Z,24.34
2024-05-09T08:53:08.496Z,21.88
2024-05-09T08:55:38.139Z,22.65
2024-05-09T08:58:10.333Z,22.69
2024-05-09T09:00:40.270Z,23.58
2024-05-09T09:03:16.128Z,23.65
2024-05-09T09:05:56.567Z,24.35
2024-05-09T09:08:25.682Z,24.39
2024-05-09T09:10:57.871Z,24.60
2024-05-09T09:13:25.258Z,24.55
2024-05-09T09:15:52.612Z,24.71
2024-05-09T09:18:25.952Z,24.27
2024-05-09T09:20:53.931Z,22.52
2024-05-09T09:23:21.005Z,21.35
2024-05-09T09:25:48.595Z,19.55
2024-05-09T09:28:16.216Z,20.12
2024-05-09T09:30:43.711Z,20.55
2024-05-09T09:33:13.470Z,20.96
2024-05-09T09:35:49.210Z,22.41
2024-05-09T09:38:31.091Z,23.54
2024-05-09T09:41:11.340Z,22.72
2024-05-09T09:43:42.983Z,22.74
2024-05-09T09:46:13.507Z,21.41
2024-05-09T09:48:43.353Z,22.57
2024-05-09T09:51:14.925Z,23.48
2024-05-09T09:53:44.267Z,22.16
2024-05-09T09:56:11.945Z,23.57
2024-05-09T09:58:41.376Z,24.19
2024-05-09T10:01:08.776Z,24.76
2024-05-09T10:03:36.404Z,24.97
2024-05-09T10:06:06.881Z,24.76
2024-05-09T10:08:37.858Z,25.12
2024-05-09T10:11:06.148Z,24.02
2024-05-09T10:13:34.014Z,22.95
2024-05-09T10:16:08.488Z,24.26
2024-05-09T10:18:39.777Z,25.18
2024-05-09T10:21:16.896Z,25.59
2024-05-09T10:23:58.255Z,25.25
2024-05-09T10:26:33.098Z,25.50
2024-05-09T10:29:00.541Z,25.92
2024-05-09T10:31:29.471Z,25.92
2024-05-09T10:33:56.746Z,24.63
2024-05-09T10:36:26.080Z,22.51
2024-05-09T10:38:55.839Z,23.01
2024-05-09T10:41:23.748Z,21.62
2024-05-09T10:43:51.776Z,20.27
2024-05-09T10:46:19.669Z,20.11
2024-05-09T10:48:48.259Z,21.02
2024-05-09T10:51:18.598Z,21.55
2024-05-09T10:53:48.313Z,22.56
2024-05-09T10:56:18.240Z,23.25
2024-05-09T10:58:45.329Z,24.20
2024-05-09T11:01:12.966Z,24.71
2024-05-09T11:03:40.470Z,24.32
2024-05-09T11:06:08.824Z,22.25
2024-05-09T11:08:38.146Z,22.76
2024-05-09T11:11:05.679Z,21.66
2024-05-09T11:13:37.179Z,21.13
2024-05-09T11:16:17.734Z,21.38
2024-05-09T11:18:54.177Z,22.01
2024-05-09T11:21:21.622Z,22.49
2024-05-09T11:23:49.031Z,23.31
2024-05-09T11:26:18.964Z,20.97
2024-05-09T11:28:56.750Z,21.27
2024-05-09T11:31:24.851Z,21.99
2024-05-09T11:33:54.469Z,21.73
2024-05-09T11:36:21.964Z,22.12
2024-05-09T11:38:49.021Z,21.84
2024-05-09T11:41:19.167Z,21.70
2024-05-09T11:43:48.949Z,22.40
2024-05-09T11:46:16.210Z,22.37
2024-05-09T11:48:43.645Z,23.21
2024-05-09T11:51:10.809Z,24.14
2024-05-09T11:53:37.837Z,24.68
2024-05-09T11:56:05.899Z,24.75
2024-05-09T11:58:33.054Z,24.48
2024-05-09T12:01:03.039Z,22.01
2024-05-09T12:03:30.510Z,22.90
2024-05-09T12:05:57.792Z,21.86
2024-05-09T12:08:24.966Z,20.59
2024-05-09T12:10:52.300Z,20.40
2024-05-09T12:13:19.710Z,20.89
2024-05-09T12:15:47.011Z,21.30
2024-05-09T12:18:16.802Z,21.67
2024-05-09T12:20:43.889Z,22.47
2024-05-09T12:23:11.106Z,23.00
2024-05-09T12:25:39.775Z,22.98
2024-05-09T12:28:07.844Z,23.28
2024-05-09T12:30:38.854Z,23.52
2024-05-09T12:33:09.488Z,23.39
2024-05-09T12:35:39.903Z,22.47
2024-05-09T12:38:07.319Z,23.08
2024-05-09T12:40:37.592Z,22.75
2024-05-09T12:43:07.461Z,22.24
2024-05-09T12:45:35.493Z,22.17
2024-05-09T12:48:03.130Z,22.52
2024-05-09T12:50:33.286Z,22.92
2024-05-09T12:53:05.057Z,22.91
2024-05-09T12:55:40.841Z,21.98
2024-05-09T12:58:15.692Z,21.00
2024-05-09T13:00:43.298Z,21.37
2024-05-09T13:03:10.779Z,20.47
2024-05-09T13:05:38.055Z,21.20
2024-05-09T13:08:08.098Z,21.75
2024-05-09T13:10:35.327Z,21.18
2024-05-09T13:13:02.777Z,20.64
2024-05-09T13:15:33.786Z,20.56
2024-05-09T13:18:03.192Z,20.66
2024-05-09T13:20:34.424Z,21.56
2024-05-09T13:23:04.879Z,22.05
2024-05-09T13:25:35.536Z,22.33
2024-05-09T13:28:04.527Z,22.17
2024-05-09T13:30:39.191Z,22.31
2024-05-09T13:33:09.402Z,22.21
2024-05-09T13:35:36.720Z,22.33
2024-05-09T13:38:05.230Z,22.68
2024-05-09T13:40:36.499Z,21.24
2024-05-09T13:43:04.693Z,20.68
2024-05-09T13:45:32.310Z,20.58
2024-05-09T13:47:59.865Z,21.25
2024-05-09T13:50:33.955Z,20.30
2024-05-09T13:53:03.614Z,20.69
2024-05-09T13:55:30.720Z,21.34
2024-05-09T13:58:01.088Z,21.71
2024-05-09T14:00:41.496Z,21.14
2024-05-09T14:03:14.244Z,20.87
2024-05-09T14:05:41.752Z,20.65
2024-05-09T14:08:09.281Z,20.95
2024-05-09T14:10:37.265Z,21.21
2024-05-09T14:13:07.191Z,21.80
2024-05-09T14:15:34.479Z,22.17
2024-05-09T14:18:02.044Z,22.43
2024-05-09T14:20:31.767Z,22.49
2024-05-09T14:23:00.379Z,22.47
2024-05-09T14:25:28.724Z,21.58
2024-05-09T14:27:57.857Z,21.81
2024-05-09T14:30:34.894Z,22.08
2024-05-09T14:33:07.072Z,22.15
2024-05-09T14:35:35.386Z,22.19
2024-05-09T14:38:03.099Z,21.00
2024-05-09T14:40:39.579Z,20.84
2024-05-09T14:43:10.762Z,21.17
2024-05-09T14:45:41.190Z,20.88
2024-05-09T14:48:09.344Z,21.56
2024-05-09T14:50:39.409Z,21.95
2024-05-09T14:53:09.123Z,22.22
2024-05-09T14:55:37.876Z,21.98
2024-05-09T14:58:07.236Z,22.23
2024-05-09T15:00:38.487Z,22.41
2024-05-09T15:03:10.287Z,22.48
2024-05-09T15:05:37.448Z,22.37
2024-05-09T15:08:06.876Z,21.71
2024-05-09T15:10:36.197Z,21.96
2024-05-09T15:13:08.882Z,22.14
2024-05-09T15:15:37.690Z,22.20
2024-05-09T15:18:06.181Z,21.82
2024-05-09T15:20:37.448Z,21.17
2024-05-09T15:23:07.128Z,20.78
2024-05-09T15:25:36.559Z,20.80
2024-05-09T15:28:04.995Z,21.15
2024-05-09T15:30:33.911Z,20.90
2024-05-09T15:33:02.280Z,21.12
2024-05-09T15:35:29.454Z,21.53
2024-05-09T15:38:00.098Z,21.20
2024-05-09T15:40:35.923Z,21.63
2024-05-09T15:43:08.417Z,21.77
2024-05-09T15:45:36.623Z,22.16
2024-05-09T15:48:04.688Z,21.23
2024-05-09T15:50:37.618Z,21.33
2024-05-09T15:53:12.363Z,21.34
2024-05-09T15:55:40.756Z,21.35
2024-05-09T15:58:08.340Z,21.49
2024-05-09T16:00:39.971Z,21.63
2024-05-09T16:03:10.516Z,21.61
2024-05-09T16:05:38.365Z,21.83
2024-05-09T16:08:09.746Z,21.31
2024-05-09T16:10:38.773Z,20.98
2024-05-09T16:13:06.505Z,21.53
2024-05-09T16:15:33.967Z,21.92
2024-05-09T16:18:01.202Z,21.99
2024-05-09T16:20:37.969Z,21.89
2024-05-09T16:23:10.798Z,21.65
2024-05-09T16:25:39.132Z,21.32
2024-05-09T16:28:09.920Z,21.33
2024-05-09T16:30:38.099Z,21.62
2024-05-09T16:33:06.291Z,21.15
2024-05-09T16:35:33.429Z,21.20
2024-05-09T16:38:02.079Z,21.39
2024-05-09T16:40:37.996Z,21.73
2024-05-09T16:43:08.841Z,21.36
2024-05-09T16:45:36.683Z,20.94
2024-05-09T16:48:05.296Z,20.83
2024-05-09T16:50:34.719Z,20.49
2024-05-09T16:53:04.397Z,20.64
2024-05-09T16:55:35.350Z,20.61
2024-05-09T16:58:05.211Z,20.76
2024-05-09T17:00:42.525Z,21.03
2024-05-09T17:03:15.864Z,21.23
2024-05-09T17:05:44.206Z,21.53
2024-05-09T17:08:12.435Z,21.63
2024-05-09T17:10:45.641Z,21.72
2024-05-09T17:13:13.684Z,21.86
2024-05-09T17:15:41.888Z,21.64
2024-05-09T17:18:09.264Z,21.16
2024-05-09T17:20:37.541Z,20.74
2024-05-09T17:23:06.360Z,20.48
2024-05-09T17:25:34.356Z,20.56
2024-05-09T17:28:05.326Z,20.71
2024-05-09T17:30:36.349Z,21.03
2024-05-09T17:33:10.301Z,20.85
2024-05-09T17:35:39.280Z,21.09
2024-05-09T17:38:06.978Z,21.22
2024-05-09T17:40:36.825Z,21.15
2024-05-09T17:43:09.985Z,21.30
2024-05-09T17:45:38.221Z,21.44
2024-05-09T17:48:08.052Z,21.31
2024-05-09T17:50:37.358Z,20.56
2024-05-09T17:53:06.447Z,20.37
2024-05-09T17:55:34.108Z,20.61
2024-05-09T17:58:01.830Z,20.75
2024-05-09T18:00:38.604Z,20.92
2024-05-09T18:03:09.449Z,20.98
2024-05-09T18:05:37.750Z,20.76
2024-05-09T18:08:15.784Z,20.89
2024-05-09T18:10:43.387Z,20.96
2024-05-09T18:13:14.092Z,21.06
2024-05-09T18:15:47.491Z,21.12
2024-05-09T18:18:18.506Z,21.12
2024-05-09T18:20:46.431Z,20.98
2024-05-09T18:23:16.377Z,21.02
2024-05-09T18:25:49.839Z,21.09
2024-05-09T18:28:17.560Z,21.11
2024-05-09T18:30:49.655Z,21.16
2024-05-09T18:33:17.301Z,21.13
2024-05-09T18:35:45.399Z,21.10
2024-05-09T18:38:13.064Z,20.97
2024-05-09T18:40:42.992Z,20.91
2024-05-09T18:43:12.141Z,20.85
2024-05-09T18:45:39.884Z,20.72
2024-05-09T18:48:14.195Z,20.61
2024-05-09T18:50:41.881Z,20.48
2024-05-09T18:53:11.904Z,20.39
2024-05-09T18:55:40.437Z,20.32
2024-05-09T18:58:07.652Z,20.26
2024-05-09T19:00:41.111Z,20.27
2024-05-09T19:03:17.197Z,20.18
2024-05-09T19:05:45.948Z,20.05
2024-05-09T19:08:13.798Z,19.76
2024-05-09T19:10:41.255Z,19.40
2024-05-09T19:13:12.096Z,19.08
2024-05-09T19:15:44.491Z,18.84
2024-05-09T19:18:15.742Z,18.78
2024-05-09T19:20:43.340Z,18.73
2024-05-09T19:23:11.157Z,18.61
2024-05-09T19:25:41.786Z,18.56
2024-05-09T19:28:11.381Z,18.54
2024-05-09T19:30:41.849Z,18.63
2024-05-09T19:33:13.007Z,18.66
2024-05-09T19:35:44.744Z,18.66
2024-05-09T19:38:12.907Z,18.62
2024-05-09T19:40:40.722Z,18.57
2024-05-09T19:43:08.078Z,18.50
2024-05-09T19:45:37.017Z,18.42
2024-05-09T19:48:06.090Z,18.37
2024-05-09T19:50:41.328Z,18.34
2024-05-09T19:53:18.351Z,18.28
2024-05-09T19:55:45.404Z,18.20
2024-05-09T19:58:15.082Z,18.12
2024-05-09T20:00:43.979Z,18.05
2024-05-09T20:03:14.806Z,17.99
2024-05-09T20:05:44.355Z,17.89
2024-05-09T20:08:16.803Z,17.83
2024-05-09T20:10:44.042Z,17.72
2024-05-09T20:13:11.323Z,17.65
2024-05-09T20:15:38.698Z,17.60
2024-05-09T20:18:06.788Z,17.58
2024-05-09T20:20:39.547Z,17.31
2024-05-09T20:23:10.332Z,17.26
2024-05-09T20:25:40.364Z,17.20
2024-05-09T20:28:07.902Z,17.10
2024-05-09T20:30:36.107Z,16.94
2024-05-09T20:33:06.155Z,16.79
2024-05-09T20:35:35.450Z,16.61
2024-05-09T20:38:03.729Z,16.54
2024-05-09T20:40:35.788Z,16.44
2024-05-09T20:43:08.801Z,16.31
2024-05-09T20:45:36.484Z,16.19
2024-05-09T20:48:04.861Z,16.10
2024-05-09T20:50:38.218Z,16.01
2024-05-09T20:53:09.910Z,15.96
2024-05-09T20:55:37.099Z,15.96
2024-05-09T20:58:10.729Z,15.96
2024-05-09T21:00:57.153Z,15.95
2024-05-09T21:03:25.383Z,15.93
2024-05-09T21:05:52.653Z,15.89
2024-05-09T21:08:19.843Z,15.91
2024-05-09T21:10:47.337Z,15.92
2024-05-09T21:13:17.341Z,15.94
2024-05-09T21:15:44.607Z,15.99
2024-05-09T21:18:11.769Z,15.99
2024-05-09T21:20:38.871Z,15.98
2024-05-09T21:23:06.043Z,15.94
2024-05-09T21:25:33.087Z,15.88
2024-05-09T21:28:00.845Z,15.70
2024-05-09T21:30:38.355Z,15.55
2024-05-09T21:33:11.063Z,15.38
2024-05-09T21:35:39.743Z,15.21
2024-05-09T21:38:06.723Z,15.18
2024-05-09T21:40:35.758Z,15.13
2024-05-09T21:43:05.044Z,15.10
2024-05-09T21:45:35.658Z,15.04
2024-05-09T21:48:04.227Z,14.99
2024-05-09T21:50:38.862Z,14.93
2024-05-09T21:53:08.766Z,14.93
2024-05-09T21:55:36.053Z,14.98
2024-05-09T21:58:03.631Z,15.04
2024-05-09T22:00:36.676Z,15.03
2024-05-09T22:03:09.952Z,15.03
2024-05-09T22:05:39.084Z,15.02
2024-05-09T22:08:07.903Z,14.89
2024-05-09T22:10:36.886Z,14.71
2024-05-09T22:13:05.735Z,14.48
2024-05-09T22:15:36.279Z,14.36
2024-05-09T22:18:08.237Z,14.44
2024-05-09T22:20:38.766Z,14.54
2024-05-09T22:23:07.104Z,14.61
2024-05-09T22:25:34.489Z,14.64
2024-05-09T22:28:03.055Z,14.66
2024-05-09T22:30:36.188Z,14.54
2024-05-09T22:33:11.062Z,14.58
2024-05-09T22:35:40.260Z,14.63
2024-05-09T22:38:07.765Z,14.68
2024-05-09T22:40:45.418Z,14.60
2024-05-09T22:43:18.700Z,14.55
2024-05-09T22:45:47.084Z,14.44
2024-05-09T22:48:16.932Z,14.37
2024-05-09T22:50:44.349Z,14.33
2024-05-09T22:53:11.366Z,14.26
2024-05-09T22:55:38.413Z,14.22
2024-05-09T22:58:05.540Z,14.23
2024-05-09T23:00:33.698Z,14.23
2024-05-09T23:03:01.657Z,14.20
2024-05-09T23:05:31.865Z,14.18
2024-05-09T23:08:00.957Z,14.18
2024-05-09T23:10:34.695Z,14.10
2024-05-09T23:13:05.830Z,13.86
2024-05-09T23:15:33.048Z,13.68
2024-05-09T23:18:00.459Z,13.70
2024-05-09T23:20:35.423Z,13.76
2024-05-09T23:23:10.454Z,13.80
2024-05-09T23:25:39.007Z,13.72
2024-05-09T23:28:06.809Z,13.62
2024-05-09T23:30:38.469Z,13.42
2024-05-09T23:33:09.050Z,13.22
2024-05-09T23:35:36.371Z,13.01
2024-05-09T23:38:03.934Z,12.93
2024-05-09T23:40:38.755Z,12.79
2024-05-09T23:43:08.180Z,12.69
2024-05-09T23:45:35.468Z,12.66
2024-05-09T23:48:03.333Z,12.65
2024-05-09T23:50:35.073Z,12.69
2024-05-09T23:53:05.715Z,12.69
2024-05-09T23:55:35.807Z,12.64
2024-05-09T23:58:03.012Z,12.69
